createdAt,value
2022-11-22T00:00:39.716Z,94
2022-11-22T00:01:46.914Z,94
2022-11-22T00:02:53.937Z,94
2022-11-22T00:04:00.430Z,94
2022-11-22T00:05:07.619Z,94
2022-11-22T00:06:14.710Z,94
2022-11-22T00:08:28.968Z,94
2022-11-22T00:09:35.515Z,94
2022-11-22T00:10:42.559Z,94
2022-11-22T00:12:56.822Z,95
2022-11-22T00:15:10.530Z,97
2022-11-22T00:16:17.631Z,99
2022-11-22T00:17:24.752Z,97
2022-11-22T00:18:31.872Z,99
2022-11-22T00:19:38.921Z,99
2022-11-22T00:20:45.577Z,99
2022-11-22T00:21:52.605Z,99
2022-11-22T00:22:59.757Z,99
2022-11-22T00:24:06.814Z,99
2022-11-22T00:25:13.917Z,99
2022-11-22T00:26:21.020Z,99
2022-11-22T00:27:27.639Z,99
2022-11-22T00:28:34.766Z,99
2022-11-22T00:29:42.857Z,99
2022-11-22T00:30:48.961Z,99
2022-11-22T00:31:55.545Z,99
2022-11-22T00:33:02.639Z,99
2022-11-22T00:34:09.821Z,99
2022-11-22T00:35:16.816Z,99
2022-11-22T00:36:24.119Z,99
2022-11-22T00:37:30.527Z,99
2022-11-22T00:38:37.651Z,99
2022-11-22T00:39:44.712Z,99
2022-11-22T00:40:51.882Z,99
2022-11-22T00:41:58.942Z,99
2022-11-22T00:43:05.554Z,99
2022-11-22T00:44:12.621Z,99
2022-11-22T00:45:19.739Z,99
2022-11-22T00:46:26.852Z,99
2022-11-22T00:47:34.104Z,99
2022-11-22T00:48:40.538Z,99
2022-11-22T00:49:47.691Z,99
2022-11-22T00:50:54.789Z,99
2022-11-22T00:52:01.867Z,99
2022-11-22T00:54:15.579Z,99
2022-11-22T00:55:22.658Z,99
2022-11-22T00:56:29.834Z,99
2022-11-22T00:57:36.855Z,99
2022-11-22T00:58:43.422Z,99
2022-11-22T00:59:50.539Z,99
2022-11-22T01:00:57.684Z,99
2022-11-22T01:02:04.763Z,99
2022-11-22T01:03:11.844Z,99
2022-11-22T01:04:18.503Z,99
2022-11-22T01:05:25.642Z,99
2022-11-22T01:06:32.673Z,99
2022-11-22T01:07:39.867Z,99
2022-11-22T01:08:46.857Z,99
2022-11-22T01:09:53.459Z,99
2022-11-22T01:12:07.751Z,99
2022-11-22T01:13:14.856Z,99
2022-11-22T01:14:21.882Z,99
2022-11-22T01:15:28.472Z,99
2022-11-22T01:16:35.593Z,99
2022-11-22T01:17:42.669Z,99
2022-11-22T01:18:49.820Z,99
2022-11-22T01:19:56.924Z,99
2022-11-22T01:21:03.492Z,99
2022-11-22T01:22:10.559Z,99
2022-11-22T01:23:17.682Z,99
2022-11-22T01:24:24.899Z,99
2022-11-22T01:25:31.884Z,99
2022-11-22T01:26:38.534Z,99
2022-11-22T01:27:45.538Z,99
2022-11-22T01:28:52.695Z,99
2022-11-22T01:30:00.308Z,99
2022-11-22T01:31:06.930Z,99
2022-11-22T01:32:13.471Z,99
2022-11-22T01:33:20.583Z,99
2022-11-22T01:35:34.864Z,99
2022-11-22T01:36:41.958Z,99
2022-11-22T01:37:48.501Z,99
2022-11-22T01:38:55.579Z,99
2022-11-22T01:40:02.686Z,99
2022-11-22T01:41:09.812Z,99
2022-11-22T01:43:23.463Z,99
2022-11-22T01:44:30.605Z,99
2022-11-22T01:45:37.707Z,99
2022-11-22T01:46:44.849Z,99
2022-11-22T01:47:51.904Z,99
2022-11-22T01:48:58.521Z,99
2022-11-22T01:50:05.701Z,99
2022-11-22T01:51:12.763Z,99
2022-11-22T01:52:20.866Z,99
2022-11-22T01:53:26.941Z,99
2022-11-22T01:54:33.511Z,99
2022-11-22T01:55:40.611Z,99
2022-11-22T01:56:47.715Z,99
2022-11-22T01:57:54.908Z,99
2022-11-22T01:59:01.940Z,99
2022-11-22T02:00:08.518Z,99
2022-11-22T02:01:15.889Z,99
2022-11-22T02:02:22.692Z,99
2022-11-22T02:03:29.868Z,99
2022-11-22T02:04:36.951Z,99
2022-11-22T02:05:43.512Z,99
2022-11-22T02:06:50.650Z,99
2022-11-22T02:07:57.767Z,99
2022-11-22T02:09:04.865Z,99
2022-11-22T02:10:11.959Z,99
2022-11-22T02:11:18.559Z,99
2022-11-22T02:12:25.646Z,99
2022-11-22T02:13:32.776Z,99
2022-11-22T02:16:53.588Z,99
2022-11-22T02:18:00.650Z,100
2022-11-22T02:19:07.813Z,99
2022-11-22T02:20:14.922Z,100
2022-11-22T02:21:22.055Z,99
2022-11-22T02:22:28.552Z,99
2022-11-22T02:23:35.711Z,99
2022-11-22T02:24:42.755Z,99
2022-11-22T02:25:49.863Z,100
2022-11-22T02:26:57.092Z,99
2022-11-22T02:28:03.530Z,99
2022-11-22T02:29:10.648Z,100
2022-11-22T02:30:17.780Z,100
2022-11-22T02:31:24.913Z,100
2022-11-22T02:32:31.965Z,100
2022-11-22T02:33:39.608Z,100
2022-11-22T02:34:45.673Z,100
2022-11-22T02:35:52.801Z,100
2022-11-22T02:36:59.945Z,100
2022-11-22T02:38:06.951Z,100
2022-11-22T02:39:13.568Z,100
2022-11-22T02:40:20.665Z,100
2022-11-22T02:41:27.798Z,100
2022-11-22T02:42:34.911Z,100
2022-11-22T02:43:41.533Z,100
2022-11-22T02:44:48.638Z,100
2022-11-22T02:45:55.696Z,100
2022-11-22T02:47:02.805Z,100
2022-11-22T02:48:09.959Z,100
2022-11-22T02:49:17.245Z,100
2022-11-22T02:50:23.568Z,100
2022-11-22T02:51:30.736Z,100
2022-11-22T02:52:37.765Z,100
2022-11-22T02:53:44.900Z,100
2022-11-22T02:54:51.984Z,100
2022-11-22T02:55:58.645Z,100
2022-11-22T02:58:12.866Z,100
2022-11-22T02:59:19.950Z,100
2022-11-22T03:00:26.532Z,100
2022-11-22T03:01:33.668Z,100
2022-11-22T03:02:40.694Z,100
2022-11-22T03:03:47.895Z,100
2022-11-22T03:04:54.916Z,100
2022-11-22T03:06:01.484Z,100
2022-11-22T03:07:08.686Z,100
2022-11-22T03:08:15.730Z,100
2022-11-22T03:09:22.801Z,100
2022-11-22T03:11:36.568Z,100
2022-11-22T03:12:43.642Z,100
2022-11-22T03:13:50.717Z,100
2022-11-22T03:14:58.321Z,100
2022-11-22T03:16:05.022Z,100
2022-11-22T03:17:11.487Z,100
2022-11-22T03:19:25.770Z,100
2022-11-22T03:20:32.858Z,100
2022-11-22T03:21:40.011Z,100
2022-11-22T03:22:46.541Z,100
2022-11-22T03:23:53.632Z,100
2022-11-22T03:25:00.744Z,100
2022-11-22T03:26:07.997Z,100
2022-11-22T03:27:14.984Z,100
2022-11-22T03:28:21.543Z,100
2022-11-22T03:29:29.050Z,100
2022-11-22T03:30:35.772Z,100
2022-11-22T03:31:42.833Z,100
2022-11-22T03:32:52.493Z,100
2022-11-22T03:33:56.561Z,100
2022-11-22T03:35:03.616Z,100
2022-11-22T03:36:10.776Z,100
2022-11-22T03:37:17.892Z,100
2022-11-22T03:39:31.897Z,100
2022-11-22T03:40:38.680Z,100
2022-11-22T03:41:45.843Z,100
2022-11-22T03:42:52.857Z,100
2022-11-22T03:43:59.959Z,99
2022-11-22T03:45:06.618Z,99
2022-11-22T03:46:13.657Z,99
2022-11-22T03:47:21.261Z,99
2022-11-22T03:48:27.926Z,99
2022-11-22T03:49:34.978Z,99
2022-11-22T03:50:41.574Z,99
2022-11-22T03:51:48.814Z,99
2022-11-22T03:52:55.819Z,99
2022-11-22T03:54:02.928Z,99
2022-11-22T03:55:10.036Z,99
2022-11-22T03:56:18.231Z,99
2022-11-22T03:57:23.689Z,99
2022-11-22T03:58:30.793Z,99
2022-11-22T03:59:37.953Z,99
2022-11-22T04:00:45.021Z,99
2022-11-22T04:01:51.696Z,99
2022-11-22T04:02:58.690Z,99
2022-11-22T04:04:05.810Z,99
2022-11-22T04:05:12.900Z,99
2022-11-22T04:06:20.115Z,99
2022-11-22T04:07:26.701Z,99
2022-11-22T04:08:33.749Z,99
2022-11-22T04:09:40.916Z,99
2022-11-22T04:10:47.911Z,99
2022-11-22T04:11:55.032Z,99
2022-11-22T04:13:01.580Z,99
2022-11-22T04:14:08.721Z,99
2022-11-22T04:15:15.830Z,99
2022-11-22T04:16:22.951Z,99
2022-11-22T04:17:29.984Z,99
2022-11-22T04:18:36.642Z,99
2022-11-22T04:20:50.848Z,99
2022-11-22T04:23:05.136Z,99
2022-11-22T04:24:11.663Z,99
2022-11-22T04:25:18.741Z,99
2022-11-22T04:26:25.869Z,99
2022-11-22T04:27:32.930Z,99
2022-11-22T04:29:08.306Z,99
2022-11-22T04:29:46.625Z,99
2022-11-22T04:30:53.714Z,99
2022-11-22T04:32:00.881Z,99
2022-11-22T04:33:07.925Z,99
2022-11-22T04:34:15.086Z,99
2022-11-22T04:35:21.652Z,99
2022-11-22T04:36:28.766Z,99
2022-11-22T04:37:36.374Z,99
2022-11-22T04:39:50.061Z,99
2022-11-22T04:40:57.181Z,99
2022-11-22T04:42:03.762Z,99
2022-11-22T04:43:10.813Z,99
2022-11-22T04:44:17.943Z,99
2022-11-22T04:45:25.066Z,99
2022-11-22T04:46:31.663Z,99
2022-11-22T04:47:38.792Z,99
2022-11-22T04:48:45.900Z,99
2022-11-22T04:49:53.046Z,99
2022-11-22T04:51:00.106Z,99
2022-11-22T04:52:06.692Z,99
2022-11-22T04:53:13.777Z,99
2022-11-22T04:54:20.861Z,99
2022-11-22T04:55:27.988Z,99
2022-11-22T04:56:34.609Z,99
2022-11-22T04:57:41.646Z,99
2022-11-22T04:58:48.813Z,99
2022-11-22T04:59:55.870Z,99
2022-11-22T05:01:03.119Z,99
2022-11-22T05:02:09.549Z,99
2022-11-22T05:03:16.699Z,99
2022-11-22T05:04:23.783Z,99
2022-11-22T05:05:30.880Z,99
2022-11-22T05:06:38.060Z,99
2022-11-22T05:07:44.659Z,99
2022-11-22T05:08:51.661Z,99
2022-11-22T05:09:58.767Z,99
2022-11-22T05:11:05.917Z,99
2022-11-22T05:12:13.079Z,99
2022-11-22T05:13:19.576Z,99
2022-11-22T05:14:26.715Z,99
2022-11-22T05:15:34.302Z,99
2022-11-22T05:16:40.912Z,99
2022-11-22T05:17:48.022Z,99
2022-11-22T05:18:55.639Z,99
2022-11-22T05:20:01.677Z,99
2022-11-22T05:21:08.786Z,99
2022-11-22T05:22:15.992Z,99
2022-11-22T05:23:23.005Z,99
2022-11-22T05:24:29.583Z,99
2022-11-22T05:26:43.781Z,99
2022-11-22T05:27:50.923Z,99
2022-11-22T05:28:58.063Z,99
2022-11-22T05:30:04.608Z,99
2022-11-22T05:31:11.667Z,100
2022-11-22T05:32:18.902Z,99
2022-11-22T05:33:25.983Z,100
2022-11-22T05:34:33.014Z,100
2022-11-22T05:35:39.620Z,100
2022-11-22T05:36:46.733Z,100
2022-11-22T05:37:53.872Z,99
2022-11-22T05:39:00.944Z,100
2022-11-22T05:40:08.016Z,99
2022-11-22T05:41:14.683Z,100
2022-11-22T05:42:21.729Z,99
2022-11-22T05:43:28.841Z,100
2022-11-22T05:44:35.965Z,99
2022-11-22T05:45:43.038Z,99
2022-11-22T05:46:49.656Z,99
2022-11-22T05:47:56.730Z,99
2022-11-22T05:49:03.827Z,99
2022-11-22T05:50:10.924Z,100
2022-11-22T05:51:18.060Z,99
2022-11-22T05:52:24.590Z,99
2022-11-22T05:53:31.702Z,100
2022-11-22T05:54:38.878Z,100
2022-11-22T05:55:45.929Z,100
2022-11-22T05:56:53.101Z,100
2022-11-22T05:57:59.659Z,100
2022-11-22T05:59:06.763Z,100
2022-11-22T06:00:14.525Z,100
2022-11-22T06:01:20.945Z,100
2022-11-22T06:02:28.106Z,100
2022-11-22T06:03:34.693Z,100
2022-11-22T06:04:41.715Z,100
2022-11-22T06:05:48.854Z,100
2022-11-22T06:08:03.194Z,100
2022-11-22T06:09:09.671Z,100
2022-11-22T06:10:16.771Z,100
2022-11-22T06:11:23.876Z,100
2022-11-22T06:12:30.951Z,100
2022-11-22T06:13:38.102Z,100
2022-11-22T06:14:44.761Z,100
2022-11-22T06:15:51.752Z,100
2022-11-22T06:16:58.947Z,99
2022-11-22T06:18:06.067Z,99
2022-11-22T06:19:13.082Z,99
2022-11-22T06:20:19.711Z,99
2022-11-22T06:21:26.843Z,99
2022-11-22T06:22:33.840Z,100
2022-11-22T06:23:40.971Z,99
2022-11-22T06:24:48.102Z,100
2022-11-22T06:25:54.679Z,99
2022-11-22T06:27:01.743Z,99
2022-11-22T06:28:08.874Z,99
2022-11-22T06:30:23.143Z,99
2022-11-22T06:31:29.733Z,99
2022-11-22T06:32:36.784Z,99
2022-11-22T06:33:43.918Z,99
2022-11-22T06:34:51.025Z,99
2022-11-22T06:35:57.603Z,99
2022-11-22T06:37:04.724Z,99
2022-11-22T06:38:11.784Z,99
2022-11-22T06:39:18.900Z,99
2022-11-22T06:40:26.028Z,99
2022-11-22T06:41:32.623Z,99
2022-11-22T06:42:39.743Z,99
2022-11-22T06:43:49.322Z,99
2022-11-22T06:44:53.946Z,99
2022-11-22T06:46:01.001Z,99
2022-11-22T06:47:07.644Z,99
2022-11-22T06:48:15.250Z,99
2022-11-22T06:49:21.811Z,99
2022-11-22T06:50:28.907Z,99
2022-11-22T06:51:36.032Z,99
2022-11-22T06:52:42.674Z,99
2022-11-22T06:53:49.929Z,99
2022-11-22T06:54:56.815Z,99
2022-11-22T06:56:03.900Z,99
2022-11-22T06:57:11.056Z,99
2022-11-22T06:58:17.622Z,99
2022-11-22T06:59:24.749Z,99
2022-11-22T07:00:31.812Z,99
2022-11-22T07:01:39.111Z,99
2022-11-22T07:02:46.180Z,99
2022-11-22T07:03:52.587Z,99
2022-11-22T07:05:23.973Z,99
2022-11-22T07:06:06.886Z,99
2022-11-22T07:07:14.095Z,99
2022-11-22T07:08:21.046Z,99
2022-11-22T07:09:28.308Z,99
2022-11-22T07:10:34.762Z,99
2022-11-22T07:11:41.897Z,99
2022-11-22T07:12:49.102Z,99
2022-11-22T07:13:57.297Z,99
2022-11-22T07:15:02.633Z,99
2022-11-22T07:16:09.754Z,99
2022-11-22T07:17:16.830Z,99
2022-11-22T07:18:23.953Z,99
2022-11-22T07:19:31.182Z,99
2022-11-22T07:20:37.688Z,99
2022-11-22T07:21:44.843Z,99
2022-11-22T07:22:52.500Z,99
2022-11-22T07:23:59.021Z,99
2022-11-22T07:25:06.071Z,99
2022-11-22T07:26:12.664Z,99
2022-11-22T07:27:19.814Z,99
2022-11-22T07:28:26.911Z,99
2022-11-22T07:29:34.012Z,99
2022-11-22T07:30:43.997Z,99
2022-11-22T07:31:47.692Z,99
2022-11-22T07:32:54.785Z,99
2022-11-22T07:34:01.874Z,99
2022-11-22T07:36:16.110Z,99
2022-11-22T07:37:22.743Z,99
2022-11-22T07:38:29.789Z,99
2022-11-22T07:39:36.970Z,99
2022-11-22T07:40:43.984Z,99
2022-11-22T07:41:51.085Z,99
2022-11-22T07:42:58.699Z,99
2022-11-22T07:44:04.852Z,99
2022-11-22T07:45:11.879Z,99
2022-11-22T07:46:18.990Z,99
2022-11-22T07:47:26.156Z,99
2022-11-22T07:48:32.713Z,99
2022-11-22T07:49:39.787Z,99
2022-11-22T07:50:46.901Z,99
2022-11-22T07:51:54.043Z,99
2022-11-22T07:53:01.131Z,99
2022-11-22T07:54:07.692Z,99
2022-11-22T07:55:14.844Z,99
2022-11-22T07:56:21.909Z,99
2022-11-22T07:57:29.075Z,99
2022-11-22T07:58:36.147Z,99
2022-11-22T07:59:42.689Z,99
2022-11-22T08:00:49.836Z,99
2022-11-22T08:01:57.029Z,99
2022-11-22T08:03:04.014Z,99
2022-11-22T08:04:10.602Z,99
2022-11-22T08:05:17.769Z,99
2022-11-22T08:06:24.855Z,99
2022-11-22T08:07:31.927Z,99
2022-11-22T08:08:39.033Z,99
2022-11-22T08:09:46.188Z,99
2022-11-22T08:10:52.698Z,99
2022-11-22T08:12:00.372Z,99
2022-11-22T08:13:07.003Z,99
2022-11-22T08:14:14.050Z,99
2022-11-22T08:15:21.140Z,99
2022-11-22T08:16:27.773Z,99
2022-11-22T08:17:34.869Z,99
2022-11-22T08:18:42.004Z,99
2022-11-22T08:19:49.041Z,99
2022-11-22T08:20:56.132Z,99
2022-11-22T08:22:02.741Z,99
2022-11-22T08:23:09.835Z,99
2022-11-22T08:24:16.983Z,99
2022-11-22T08:25:24.095Z,99
2022-11-22T08:26:30.690Z,99
2022-11-22T08:27:37.787Z,99
2022-11-22T08:28:44.853Z,99
2022-11-22T08:29:51.961Z,99
2022-11-22T08:30:59.050Z,99
2022-11-22T08:32:05.661Z,99
2022-11-22T08:33:12.762Z,99
2022-11-22T08:34:19.900Z,99
2022-11-22T08:35:26.959Z,99
2022-11-22T08:36:34.071Z,99
2022-11-22T08:37:40.608Z,99
2022-11-22T08:38:47.753Z,99
2022-11-22T08:39:54.901Z,99
2022-11-22T08:41:01.993Z,99
2022-11-22T08:42:09.060Z,99
2022-11-22T08:43:15.659Z,99
2022-11-22T08:44:22.750Z,99
2022-11-22T08:46:37.031Z,99
2022-11-22T08:47:44.068Z,99
2022-11-22T08:48:50.655Z,99
2022-11-22T08:49:57.807Z,99
2022-11-22T08:51:04.862Z,99
2022-11-22T08:52:12.033Z,99
2022-11-22T08:53:19.093Z,99
2022-11-22T08:54:25.694Z,99
2022-11-22T08:56:39.913Z,99
2022-11-22T08:57:47.031Z,99
2022-11-22T08:58:54.110Z,99
2022-11-22T09:00:00.687Z,99
2022-11-22T09:01:07.818Z,99
2022-11-22T09:02:14.930Z,99
2022-11-22T09:04:29.250Z,99
2022-11-22T09:05:36.508Z,99
2022-11-22T09:09:15.167Z,99
2022-11-22T09:10:04.146Z,99
2022-11-22T09:11:10.701Z,99
2022-11-22T09:12:17.870Z,99
2022-11-22T09:13:24.931Z,99
2022-11-22T09:14:32.013Z,99
2022-11-22T09:15:39.174Z,99
2022-11-22T09:16:45.777Z,99
2022-11-22T09:17:52.811Z,99
2022-11-22T09:18:59.872Z,99
2022-11-22T09:20:07.055Z,99
2022-11-22T09:21:14.127Z,99
2022-11-22T09:22:24.006Z,99
2022-11-22T09:23:27.871Z,99
2022-11-22T09:24:34.966Z,99
2022-11-22T09:25:42.021Z,99
2022-11-22T09:27:55.759Z,99
2022-11-22T09:29:02.800Z,99
2022-11-22T09:30:09.962Z,99
2022-11-22T09:31:17.109Z,99
2022-11-22T09:32:26.207Z,99
2022-11-22T09:33:30.700Z,99
2022-11-22T09:34:37.818Z,99
2022-11-22T09:35:44.964Z,99
2022-11-22T09:36:52.082Z,99
2022-11-22T09:37:59.132Z,99
2022-11-22T09:39:05.741Z,99
2022-11-22T09:40:13.354Z,99
2022-11-22T09:41:20.001Z,99
2022-11-22T09:42:27.139Z,99
2022-11-22T09:43:34.152Z,99
2022-11-22T09:44:40.731Z,99
2022-11-22T09:45:47.838Z,99
2022-11-22T09:46:54.978Z,99
2022-11-22T09:48:05.378Z,99
2022-11-22T09:49:09.255Z,99
2022-11-22T09:50:15.735Z,99
2022-11-22T09:51:22.948Z,99
2022-11-22T09:52:30.063Z,99
2022-11-22T09:53:37.057Z,99
2022-11-22T09:54:44.206Z,99
2022-11-22T09:55:50.758Z,99
2022-11-22T09:56:57.887Z,99
2022-11-22T09:58:04.971Z,99
2022-11-22T10:00:19.278Z,99
2022-11-22T10:01:25.941Z,99
2022-11-22T10:02:43.404Z,99
2022-11-22T10:03:39.967Z,99
2022-11-22T10:04:47.094Z,99
2022-11-22T10:05:53.628Z,99
2022-11-22T10:07:00.807Z,99
2022-11-22T10:09:15.023Z,99
2022-11-22T10:10:22.123Z,99
2022-11-22T10:11:32.154Z,99
2022-11-22T10:12:35.850Z,99
2022-11-22T10:13:42.922Z,99
2022-11-22T10:14:50.080Z,99
2022-11-22T10:15:57.107Z,99
2022-11-22T10:17:03.741Z,99
2022-11-22T10:18:10.768Z,99
2022-11-22T10:19:17.921Z,99
2022-11-22T10:20:25.034Z,99
2022-11-22T10:21:32.067Z,99
2022-11-22T10:22:38.788Z,99
2022-11-22T10:23:45.859Z,99
2022-11-22T10:24:52.868Z,99
2022-11-22T10:26:00.101Z,99
2022-11-22T10:27:07.229Z,99
2022-11-22T10:28:13.660Z,99
2022-11-22T10:29:20.773Z,99
2022-11-22T10:30:27.961Z,99
2022-11-22T10:31:35.024Z,99
2022-11-22T10:32:42.161Z,99
2022-11-22T10:33:48.741Z,99
2022-11-22T10:34:55.802Z,99
2022-11-22T10:36:02.869Z,99
2022-11-22T10:37:10.016Z,99
2022-11-22T10:38:17.152Z,99
2022-11-22T10:39:23.819Z,99
2022-11-22T10:40:30.815Z,99
2022-11-22T10:41:37.961Z,99
2022-11-22T10:42:45.083Z,99
2022-11-22T10:43:52.132Z,99
2022-11-22T10:44:58.756Z,99
2022-11-22T10:46:05.867Z,99
2022-11-22T10:47:12.980Z,99
2022-11-22T10:48:20.079Z,99
2022-11-22T10:50:33.691Z,99
2022-11-22T10:51:40.844Z,99
2022-11-22T10:52:47.942Z,99
2022-11-22T10:54:00.361Z,99
2022-11-22T10:55:02.132Z,99
2022-11-22T10:56:08.724Z,99
2022-11-22T10:57:15.923Z,99
2022-11-22T10:58:22.969Z,99
2022-11-22T10:59:30.572Z,99
2022-11-22T11:00:37.207Z,99
2022-11-22T11:01:43.809Z,99
2022-11-22T11:03:57.992Z,99
2022-11-22T11:05:05.085Z,99
2022-11-22T11:06:38.038Z,99
2022-11-22T11:07:18.787Z,99
2022-11-22T11:08:42.829Z,99
2022-11-22T11:10:10.160Z,99
2022-11-22T11:10:40.194Z,99
2022-11-22T11:11:47.200Z,99
2022-11-22T11:12:53.762Z,99
2022-11-22T11:14:00.873Z,99
2022-11-22T11:15:08.020Z,99
2022-11-22T11:16:15.104Z,99
2022-11-22T11:17:22.242Z,99
2022-11-22T11:18:28.816Z,99
2022-11-22T11:19:35.864Z,99
2022-11-22T11:20:42.975Z,99
2022-11-22T11:21:50.167Z,99
2022-11-22T11:23:14.763Z,99
2022-11-22T11:24:03.887Z,99
2022-11-22T11:25:10.853Z,99
2022-11-22T11:26:17.969Z,99
2022-11-22T11:27:25.193Z,99
2022-11-22T11:28:32.251Z,99
2022-11-22T11:29:38.777Z,99
2022-11-22T11:31:53.008Z,99
2022-11-22T11:33:00.105Z,99
2022-11-22T11:34:07.279Z,99
2022-11-22T11:35:13.834Z,99
2022-11-22T11:36:20.847Z,99
2022-11-22T11:37:28.029Z,99
2022-11-22T11:38:35.230Z,99
2022-11-22T11:39:44.813Z,99
2022-11-22T11:40:48.842Z,99
2022-11-22T11:41:55.940Z,99
2022-11-22T11:43:03.044Z,99
2022-11-22T11:44:10.188Z,99
2022-11-22T11:45:16.812Z,99
2022-11-22T11:46:23.835Z,99
2022-11-22T11:47:30.938Z,99
2022-11-22T11:48:38.002Z,99
2022-11-22T11:49:45.325Z,99
2022-11-22T11:50:52.245Z,99
2022-11-22T11:51:58.855Z,99
2022-11-22T11:53:06.000Z,99
2022-11-22T11:54:12.975Z,99
2022-11-22T11:55:20.201Z,99
2022-11-22T11:56:27.352Z,99
2022-11-22T11:57:33.913Z,99
2022-11-22T11:58:40.891Z,99
2022-11-22T12:00:55.313Z,99
2022-11-22T12:02:02.457Z,99
2022-11-22T12:03:08.965Z,98
2022-11-22T12:04:15.987Z,98
2022-11-22T12:05:23.103Z,98
2022-11-22T12:07:36.903Z,98
2022-11-22T12:08:43.891Z,98
2022-11-22T12:09:50.912Z,98
2022-11-22T12:10:58.037Z,98
2022-11-22T12:13:11.756Z,98
2022-11-22T12:14:20.509Z,98
2022-11-22T12:15:25.941Z,98
2022-11-22T12:16:33.107Z,98
2022-11-22T12:17:40.186Z,98
2022-11-22T12:18:46.740Z,98
2022-11-22T12:19:53.856Z,98
2022-11-22T12:21:00.963Z,98
2022-11-22T12:22:08.139Z,98
2022-11-22T12:23:15.153Z,98
2022-11-22T12:26:36.066Z,98
2022-11-22T12:27:43.163Z,98
2022-11-22T12:28:50.162Z,98
2022-11-22T12:29:56.759Z,98
2022-11-22T12:31:03.831Z,98
2022-11-22T12:32:10.983Z,98
2022-11-22T12:33:18.082Z,97
2022-11-22T12:34:25.202Z,97
2022-11-22T12:35:31.728Z,97
2022-11-22T12:36:39.416Z,97
2022-11-22T12:37:46.083Z,97
2022-11-22T12:38:53.128Z,97
2022-11-22T12:40:00.180Z,97
2022-11-22T12:41:06.823Z,97
2022-11-22T12:42:17.457Z,97
2022-11-22T12:43:20.965Z,95
2022-11-22T12:45:35.255Z,92
2022-11-22T12:46:42.131Z,92
2022-11-22T12:47:48.971Z,92
2022-11-22T12:48:32.942Z,98
2022-11-22T12:48:56.051Z,91
2022-11-22T12:50:03.167Z,91
2022-11-22T12:51:10.225Z,91
2022-11-22T12:52:16.805Z,91
2022-11-22T12:54:31.342Z,90
2022-11-22T12:55:38.154Z,90
2022-11-22T12:56:45.257Z,90
2022-11-22T12:57:51.860Z,90
2022-11-22T12:58:58.925Z,90
2022-11-22T13:00:05.999Z,90
2022-11-22T13:01:13.261Z,90
2022-11-22T13:02:20.259Z,89
2022-11-22T13:03:26.825Z,89
2022-11-22T13:04:33.951Z,89
2022-11-22T13:05:41.089Z,89
2022-11-22T13:06:48.234Z,89
2022-11-22T13:07:55.330Z,89
2022-11-22T13:09:03.948Z,89
2022-11-22T13:11:16.085Z,89
2022-11-22T13:12:23.225Z,89
2022-11-22T13:13:30.300Z,88
2022-11-22T13:14:36.857Z,88
2022-11-22T13:15:44.003Z,88
2022-11-22T13:16:51.190Z,88
2022-11-22T13:17:58.125Z,88
2022-11-22T13:19:05.207Z,88
2022-11-22T13:20:11.920Z,88
2022-11-22T13:21:19.113Z,88
2022-11-22T13:22:26.198Z,88
2022-11-22T13:23:33.177Z,87
2022-11-22T13:24:40.261Z,87
2022-11-22T13:25:46.863Z,87
2022-11-22T13:26:54.049Z,87
2022-11-22T13:29:08.273Z,87
2022-11-22T13:30:15.633Z,86
2022-11-22T13:31:21.923Z,86
2022-11-22T13:32:29.042Z,86
2022-11-22T13:33:36.039Z,86
2022-11-22T13:35:49.835Z,86
2022-11-22T13:37:01.747Z,86
2022-11-22T13:38:03.934Z,85
2022-11-22T13:39:11.137Z,85
2022-11-22T13:40:18.127Z,85
2022-11-22T13:41:24.846Z,85
2022-11-22T13:42:31.950Z,85
2022-11-22T13:43:39.009Z,85
2022-11-22T13:44:46.067Z,85
2022-11-22T13:45:53.132Z,84
2022-11-22T13:46:59.793Z,84
2022-11-22T13:48:06.980Z,84
2022-11-22T13:49:13.926Z,84
2022-11-22T13:50:21.037Z,84
2022-11-22T13:51:28.139Z,84
2022-11-22T13:52:34.773Z,84
2022-11-22T13:53:41.904Z,84
2022-11-22T13:54:49.105Z,84
2022-11-22T13:55:56.194Z,84
2022-11-22T13:57:03.235Z,84
2022-11-22T13:58:09.821Z,84
2022-11-22T13:59:16.926Z,84
2022-11-22T14:00:23.974Z,84
2022-11-22T14:01:31.139Z,83
2022-11-22T14:02:38.302Z,83
2022-11-22T14:03:44.795Z,83
2022-11-22T14:04:52.425Z,83
2022-11-22T14:05:58.963Z,83
2022-11-22T14:07:06.233Z,83
2022-11-22T14:08:13.207Z,83
2022-11-22T14:09:19.865Z,83
2022-11-22T14:10:26.925Z,83
2022-11-22T14:11:39.097Z,83
2022-11-22T14:12:41.088Z,83
2022-11-22T14:14:54.842Z,83
2022-11-22T14:17:09.094Z,82
2022-11-22T14:18:16.151Z,82
2022-11-22T14:19:23.229Z,82
2022-11-22T14:20:29.799Z,82
2022-11-22T14:21:36.945Z,82
2022-11-22T14:22:44.116Z,82
2022-11-22T14:23:51.190Z,82
2022-11-22T14:24:58.382Z,82
2022-11-22T14:26:04.853Z,82
2022-11-22T14:27:11.994Z,82
2022-11-22T14:28:19.102Z,82
2022-11-22T14:29:26.171Z,82
2022-11-22T14:30:33.191Z,82
2022-11-22T14:31:39.832Z,82
2022-11-22T14:32:47.001Z,82
2022-11-22T14:33:54.119Z,82
2022-11-22T14:35:01.092Z,82
2022-11-22T14:36:08.280Z,82
2022-11-22T14:37:14.833Z,82
2022-11-22T14:38:22.097Z,82
2022-11-22T14:39:33.515Z,82
2022-11-22T14:40:36.161Z,82
2022-11-22T14:41:43.233Z,82
2022-11-22T14:42:52.675Z,82
2022-11-22T14:43:56.947Z,81
2022-11-22T14:45:04.125Z,81
2022-11-22T14:46:30.391Z,81
2022-11-22T14:47:18.357Z,81
2022-11-22T14:48:24.909Z,81
2022-11-22T14:49:32.436Z,81
2022-11-22T14:50:39.279Z,81
2022-11-22T14:51:46.205Z,81
2022-11-22T14:52:52.809Z,81
2022-11-22T14:53:59.951Z,81
2022-11-22T14:55:06.954Z,81
2022-11-22T14:56:14.110Z,81
2022-11-22T14:58:27.835Z,81
2022-11-22T14:59:34.937Z,81
2022-11-22T15:00:41.926Z,81
2022-11-22T15:01:49.251Z,81
2022-11-22T15:02:56.242Z,81
2022-11-22T15:09:11.671Z,81
2022-11-22T15:09:20.798Z,81
2022-11-22T15:09:20.800Z,81
2022-11-22T15:09:23.401Z,81
2022-11-22T15:09:29.154Z,81
2022-11-22T15:09:48.973Z,81
2022-11-22T15:10:44.952Z,81
2022-11-22T15:11:52.061Z,81
2022-11-22T15:12:59.186Z,81
2022-11-22T15:14:06.269Z,81
2022-11-22T15:57:39.274Z,80
2022-11-22T15:58:46.287Z,80
2022-11-22T15:59:52.809Z,80
2022-11-22T16:01:18.892Z,80
2022-11-22T16:02:07.047Z,81
2022-11-22T16:03:14.238Z,81
2022-11-22T16:04:21.376Z,81
2022-11-22T16:06:06.678Z,81
2022-11-22T16:06:35.084Z,80
2022-11-22T16:07:42.081Z,80
2022-11-22T16:08:49.315Z,80
2022-11-22T16:09:56.250Z,80
2022-11-22T16:11:02.900Z,80
2022-11-22T16:12:10.053Z,80
2022-11-22T16:13:17.077Z,80
2022-11-22T16:14:24.210Z,80
2022-11-22T16:15:30.815Z,80
2022-11-22T16:16:37.853Z,80
2022-11-22T16:17:45.089Z,80
2022-11-22T16:18:52.151Z,80
2022-11-22T16:22:12.828Z,80
2022-11-22T16:23:21.093Z,80
2022-11-22T16:25:34.386Z,80
2022-11-22T16:26:40.726Z,80
2022-11-22T16:27:48.038Z,80
2022-11-22T16:28:54.948Z,79
2022-11-22T16:30:02.043Z,79
2022-11-22T16:31:09.174Z,79
2022-11-22T16:32:15.948Z,79
2022-11-22T16:33:22.854Z,79
2022-11-22T16:34:30.065Z,79
2022-11-22T16:35:37.161Z,79
2022-11-22T16:36:44.317Z,79
2022-11-22T16:37:51.926Z,79
2022-11-22T16:38:57.999Z,79
2022-11-22T16:40:05.040Z,79
2022-11-22T16:41:12.057Z,79
2022-11-22T16:42:19.256Z,80
2022-11-22T16:43:25.875Z,80
2022-11-22T16:44:32.923Z,80
2022-11-22T16:45:40.114Z,80
2022-11-22T16:46:47.100Z,80
2022-11-22T16:47:58.481Z,80
2022-11-22T16:49:00.754Z,80
2022-11-22T16:50:08.019Z,80
2022-11-22T16:51:15.213Z,80
2022-11-22T16:52:22.231Z,80
2022-11-22T16:53:29.342Z,80
2022-11-22T16:54:35.895Z,81
2022-11-22T16:55:42.884Z,81
2022-11-22T16:56:50.140Z,81
2022-11-22T16:57:57.192Z,81
2022-11-22T16:59:08.018Z,81
2022-11-22T17:00:10.785Z,81
2022-11-22T17:02:25.230Z,81
2022-11-22T17:03:32.185Z,81
2022-11-22T17:04:41.063Z,82
2022-11-22T17:05:45.864Z,82
2022-11-22T17:06:52.978Z,82
2022-11-22T17:08:00.289Z,82
2022-11-22T17:09:07.120Z,82
2022-11-22T17:10:14.361Z,82
2022-11-22T17:11:20.933Z,82
2022-11-22T17:12:33.442Z,82
2022-11-22T17:13:35.194Z,82
2022-11-22T17:14:42.104Z,82
2022-11-22T17:15:49.389Z,83
2022-11-22T17:16:55.806Z,83
2022-11-22T17:18:02.993Z,83
2022-11-22T17:19:24.169Z,83
2022-11-22T17:20:17.204Z,83
2022-11-22T17:21:24.391Z,83
2022-11-22T17:22:31.148Z,83
2022-11-22T17:23:38.042Z,83
2022-11-22T17:25:52.823Z,83
2022-11-22T17:26:59.396Z,83
2022-11-22T17:28:06.110Z,83